sensor_id;sensor_type;location;lat;lon;timestamp;P1;durP1;ratioP1;P2;durP2;ratioP2
51921;SDS011;37948;53.260;6.394;2023-03-14T00:01:19;18.23;;;5.68;;
51921;SDS011;37948;53.260;6.394;2023-03-14T00:03:45;18.73;;;4.30;;
51921;SDS011;37948;53.260;6.394;2023-03-14T00:06:11;22.80;;;4.93;;
51921;SDS011;37948;53.260;6.394;2023-03-14T00:08:38;24.90;;;4.20;;
51921;SDS011;37948;53.260;6.394;2023-03-14T00:11:08;17.55;;;4.30;;
51921;SDS011;37948;53.260;6.394;2023-03-14T00:13:38;27.98;;;4.68;;
51921;SDS011;37948;53.260;6.394;2023-03-14T00:16:05;24.13;;;5.35;;
51921;SDS011;37948;53.260;6.394;2023-03-14T00:18:33;23.23;;;4.90;;
51921;SDS011;37948;53.260;6.394;2023-03-14T00:21:00;18.15;;;5.07;;
51921;SDS011;37948;53.260;6.394;2023-03-14T00:23:27;22.30;;;4.72;;
51921;SDS011;37948;53.260;6.394;2023-03-14T00:25:57;21.00;;;3.97;;
51921;SDS011;37948;53.260;6.394;2023-03-14T00:28:24;23.98;;;5.18;;
51921;SDS011;37948;53.260;6.394;2023-03-14T00:30:50;32.63;;;6.07;;
51921;SDS011;37948;53.260;6.394;2023-03-14T00:33:16;25.40;;;4.97;;
51921;SDS011;37948;53.260;6.394;2023-03-14T00:35:41;23.65;;;4.97;;
51921;SDS011;37948;53.260;6.394;2023-03-14T00:38:07;23.17;;;4.97;;
51921;SDS011;37948;53.260;6.394;2023-03-14T00:40:32;25.52;;;4.20;;
51921;SDS011;37948;53.260;6.394;2023-03-14T00:42:58;30.08;;;5.63;;
51921;SDS011;37948;53.260;6.394;2023-03-14T00:45:23;31.30;;;4.82;;
51921;SDS011;37948;53.260;6.394;2023-03-14T00:47:49;23.13;;;5.18;;
51921;SDS011;37948;53.260;6.394;2023-03-14T00:50:15;22.95;;;4.53;;
51921;SDS011;37948;53.260;6.394;2023-03-14T00:52:40;18.08;;;4.93;;
51921;SDS011;37948;53.260;6.394;2023-03-14T00:55:06;21.88;;;4.90;;
51921;SDS011;37948;53.260;6.394;2023-03-14T00:57:32;21.42;;;3.63;;
51921;SDS011;37948;53.260;6.394;2023-03-14T00:59:57;20.77;;;4.63;;
51921;SDS011;37948;53.260;6.394;2023-03-14T01:02:23;20.60;;;4.50;;
51921;SDS011;37948;53.260;6.394;2023-03-14T01:04:49;21.73;;;4.35;;
51921;SDS011;37948;53.260;6.394;2023-03-14T01:07:15;22.15;;;4.88;;
51921;SDS011;37948;53.260;6.394;2023-03-14T01:09:40;20.98;;;4.28;;
51921;SDS011;37948;53.260;6.394;2023-03-14T01:12:06;24.17;;;4.10;;
51921;SDS011;37948;53.260;6.394;2023-03-14T01:14:32;22.33;;;4.50;;
51921;SDS011;37948;53.260;6.394;2023-03-14T01:16:57;17.20;;;3.78;;
51921;SDS011;37948;53.260;6.394;2023-03-14T01:19:26;22.20;;;4.10;;
51921;SDS011;37948;53.260;6.394;2023-03-14T01:21:53;19.95;;;4.22;;
51921;SDS011;37948;53.260;6.394;2023-03-14T01:24:19;21.20;;;4.30;;
51921;SDS011;37948;53.260;6.394;2023-03-14T01:26:45;16.70;;;3.92;;
51921;SDS011;37948;53.260;6.394;2023-03-14T01:29:11;24.08;;;4.10;;
51921;SDS011;37948;53.260;6.394;2023-03-14T01:31:37;27.23;;;4.80;;
51921;SDS011;37948;53.260;6.394;2023-03-14T01:34:03;22.30;;;4.05;;
51921;SDS011;37948;53.260;6.394;2023-03-14T01:36:28;18.33;;;4.38;;
51921;SDS011;37948;53.260;6.394;2023-03-14T01:38:54;13.40;;;3.45;;
51921;SDS011;37948;53.260;6.394;2023-03-14T01:41:21;16.92;;;3.90;;
51921;SDS011;37948;53.260;6.394;2023-03-14T01:43:48;15.05;;;3.20;;
51921;SDS011;37948;53.260;6.394;2023-03-14T01:46:25;18.02;;;3.47;;
51921;SDS011;37948;53.260;6.394;2023-03-14T01:49:16;15.13;;;3.38;;
51921;SDS011;37948;53.260;6.394;2023-03-14T01:51:48;22.75;;;2.95;;
51921;SDS011;37948;53.260;6.394;2023-03-14T01:54:28;12.38;;;3.42;;
51921;SDS011;37948;53.260;6.394;2023-03-14T01:59:52;19.55;;;3.72;;
51921;SDS011;37948;53.260;6.394;2023-03-14T02:02:21;11.75;;;2.60;;
51921;SDS011;37948;53.260;6.394;2023-03-14T02:04:48;15.93;;;3.05;;
51921;SDS011;37948;53.260;6.394;2023-03-14T02:07:18;16.92;;;3.30;;
51921;SDS011;37948;53.260;6.394;2023-03-14T02:09:47;12.93;;;3.60;;
51921;SDS011;37948;53.260;6.394;2023-03-14T02:12:14;18.83;;;4.28;;
51921;SDS011;37948;53.260;6.394;2023-03-14T02:14:41;18.92;;;3.20;;
51921;SDS011;37948;53.260;6.394;2023-03-14T02:17:13;17.15;;;3.17;;
51921;SDS011;37948;53.260;6.394;2023-03-14T02:22:33;15.82;;;2.80;;
51921;SDS011;37948;53.260;6.394;2023-03-14T02:27:33;17.40;;;2.90;;
51921;SDS011;37948;53.260;6.394;2023-03-14T02:30:00;15.57;;;2.97;;
51921;SDS011;37948;53.260;6.394;2023-03-14T02:32:37;13.15;;;2.88;;
51921;SDS011;37948;53.260;6.394;2023-03-14T02:35:09;14.85;;;3.92;;
51921;SDS011;37948;53.260;6.394;2023-03-14T02:37:41;11.32;;;2.47;;
51921;SDS011;37948;53.260;6.394;2023-03-14T02:40:14;12.80;;;2.22;;
51921;SDS011;37948;53.260;6.394;2023-03-14T02:42:40;22.63;;;3.30;;
51921;SDS011;37948;53.260;6.394;2023-03-14T02:47:34;15.40;;;4.55;;
51921;SDS011;37948;53.260;6.394;2023-03-14T02:50:10;10.85;;;2.85;;
51921;SDS011;37948;53.260;6.394;2023-03-14T02:52:39;18.02;;;2.53;;
51921;SDS011;37948;53.260;6.394;2023-03-14T02:55:05;14.05;;;2.03;;
51921;SDS011;37948;53.260;6.394;2023-03-14T02:57:31;13.32;;;2.42;;
51921;SDS011;37948;53.260;6.394;2023-03-14T03:00:00;14.73;;;3.08;;
51921;SDS011;37948;53.260;6.394;2023-03-14T03:02:26;18.77;;;3.25;;
51921;SDS011;37948;53.260;6.394;2023-03-14T03:04:52;10.73;;;2.88;;
51921;SDS011;37948;53.260;6.394;2023-03-14T03:07:18;15.50;;;2.83;;
51921;SDS011;37948;53.260;6.394;2023-03-14T03:09:45;18.25;;;3.35;;
51921;SDS011;37948;53.260;6.394;2023-03-14T03:12:11;15.05;;;2.92;;
51921;SDS011;37948;53.260;6.394;2023-03-14T03:14:36;16.98;;;3.17;;
51921;SDS011;37948;53.260;6.394;2023-03-14T03:17:03;10.50;;;2.63;;
51921;SDS011;37948;53.260;6.394;2023-03-14T03:19:29;16.60;;;3.42;;
51921;SDS011;37948;53.260;6.394;2023-03-14T03:21:55;18.35;;;3.63;;
51921;SDS011;37948;53.260;6.394;2023-03-14T03:24:21;15.50;;;2.88;;
51921;SDS011;37948;53.260;6.394;2023-03-14T03:26:46;14.93;;;4.40;;
51921;SDS011;37948;53.260;6.394;2023-03-14T03:29:12;17.58;;;3.40;;
51921;SDS011;37948;53.260;6.394;2023-03-14T03:31:38;16.65;;;4.30;;
51921;SDS011;37948;53.260;6.394;2023-03-14T03:34:04;8.02;;;2.78;;
51921;SDS011;37948;53.260;6.394;2023-03-14T03:36:29;18.20;;;5.35;;
51921;SDS011;37948;53.260;6.394;2023-03-14T03:38:55;16.55;;;3.67;;
51921;SDS011;37948;53.260;6.394;2023-03-14T03:41:21;14.10;;;4.53;;
51921;SDS011;37948;53.260;6.394;2023-03-14T03:43:46;13.75;;;4.03;;
51921;SDS011;37948;53.260;6.394;2023-03-14T03:46:12;23.75;;;4.55;;
51921;SDS011;37948;53.260;6.394;2023-03-14T03:48:37;17.52;;;4.35;;
51921;SDS011;37948;53.260;6.394;2023-03-14T03:51:03;19.55;;;3.97;;
51921;SDS011;37948;53.260;6.394;2023-03-14T03:53:29;19.17;;;3.90;;
51921;SDS011;37948;53.260;6.394;2023-03-14T03:55:55;24.63;;;4.80;;
51921;SDS011;37948;53.260;6.394;2023-03-14T03:58:21;23.30;;;4.55;;
51921;SDS011;37948;53.260;6.394;2023-03-14T04:00:46;24.80;;;4.93;;
51921;SDS011;37948;53.260;6.394;2023-03-14T04:03:12;28.27;;;4.45;;
51921;SDS011;37948;53.260;6.394;2023-03-14T04:05:37;21.98;;;4.40;;
51921;SDS011;37948;53.260;6.394;2023-03-14T04:08:03;29.80;;;5.38;;
51921;SDS011;37948;53.260;6.394;2023-03-14T04:10:29;35.05;;;4.85;;
51921;SDS011;37948;53.260;6.394;2023-03-14T04:12:59;30.23;;;4.63;;
51921;SDS011;37948;53.260;6.394;2023-03-14T04:15:24;27.65;;;5.97;;
51921;SDS011;37948;53.260;6.394;2023-03-14T04:17:50;21.38;;;4.53;;
51921;SDS011;37948;53.260;6.394;2023-03-14T04:20:15;29.23;;;5.43;;
51921;SDS011;37948;53.260;6.394;2023-03-14T04:22:41;28.55;;;4.75;;
51921;SDS011;37948;53.260;6.394;2023-03-14T04:25:08;25.20;;;4.60;;
51921;SDS011;37948;53.260;6.394;2023-03-14T04:27:33;25.92;;;4.47;;
51921;SDS011;37948;53.260;6.394;2023-03-14T04:29:59;26.65;;;5.63;;
51921;SDS011;37948;53.260;6.394;2023-03-14T04:32:24;28.58;;;4.85;;
51921;SDS011;37948;53.260;6.394;2023-03-14T04:34:50;28.98;;;4.90;;
51921;SDS011;37948;53.260;6.394;2023-03-14T04:37:16;23.30;;;4.43;;
51921;SDS011;37948;53.260;6.394;2023-03-14T04:39:41;22.20;;;4.05;;
51921;SDS011;37948;53.260;6.394;2023-03-14T04:42:07;25.83;;;5.00;;
51921;SDS011;37948;53.260;6.394;2023-03-14T04:44:32;21.20;;;4.80;;
51921;SDS011;37948;53.260;6.394;2023-03-14T04:46:58;20.88;;;4.53;;
51921;SDS011;37948;53.260;6.394;2023-03-14T04:49:24;24.02;;;4.93;;
51921;SDS011;37948;53.260;6.394;2023-03-14T04:51:49;28.45;;;5.35;;
51921;SDS011;37948;53.260;6.394;2023-03-14T04:54:18;25.25;;;5.78;;
51921;SDS011;37948;53.260;6.394;2023-03-14T04:56:44;27.00;;;5.80;;
51921;SDS011;37948;53.260;6.394;2023-03-14T04:59:09;26.02;;;5.80;;
51921;SDS011;37948;53.260;6.394;2023-03-14T05:01:35;24.05;;;5.15;;
51921;SDS011;37948;53.260;6.394;2023-03-14T05:04:01;22.33;;;6.10;;
51921;SDS011;37948;53.260;6.394;2023-03-14T05:06:27;20.85;;;5.07;;
51921;SDS011;37948;53.260;6.394;2023-03-14T05:08:53;22.67;;;7.35;;
51921;SDS011;37948;53.260;6.394;2023-03-14T05:11:19;28.13;;;6.00;;
51921;SDS011;37948;53.260;6.394;2023-03-14T05:13:44;17.70;;;7.32;;
51921;SDS011;37948;53.260;6.394;2023-03-14T05:16:10;17.75;;;5.47;;
51921;SDS011;37948;53.260;6.394;2023-03-14T05:18:36;16.83;;;5.53;;
51921;SDS011;37948;53.260;6.394;2023-03-14T05:21:02;17.10;;;5.88;;
51921;SDS011;37948;53.260;6.394;2023-03-14T05:23:29;13.77;;;5.85;;
51921;SDS011;37948;53.260;6.394;2023-03-14T05:25:55;16.23;;;6.03;;
51921;SDS011;37948;53.260;6.394;2023-03-14T05:28:20;14.57;;;4.97;;
51921;SDS011;37948;53.260;6.394;2023-03-14T05:30:46;9.85;;;4.60;;
51921;SDS011;37948;53.260;6.394;2023-03-14T05:33:12;10.30;;;5.10;;
51921;SDS011;37948;53.260;6.394;2023-03-14T05:35:38;8.88;;;4.43;;
51921;SDS011;37948;53.260;6.394;2023-03-14T05:38:04;10.50;;;4.30;;
51921;SDS011;37948;53.260;6.394;2023-03-14T05:40:29;7.65;;;3.95;;
51921;SDS011;37948;53.260;6.394;2023-03-14T05:42:55;9.80;;;3.65;;
51921;SDS011;37948;53.260;6.394;2023-03-14T05:45:21;11.40;;;4.60;;
51921;SDS011;37948;53.260;6.394;2023-03-14T05:47:46;7.07;;;3.67;;
51921;SDS011;37948;53.260;6.394;2023-03-14T05:50:12;8.70;;;3.40;;
51921;SDS011;37948;53.260;6.394;2023-03-14T05:52:37;5.97;;;3.15;;
51921;SDS011;37948;53.260;6.394;2023-03-14T05:55:03;6.43;;;3.40;;
51921;SDS011;37948;53.260;6.394;2023-03-14T05:57:30;13.32;;;3.20;;
51921;SDS011;37948;53.260;6.394;2023-03-14T05:59:55;8.70;;;2.67;;
51921;SDS011;37948;53.260;6.394;2023-03-14T06:02:21;5.57;;;2.83;;
51921;SDS011;37948;53.260;6.394;2023-03-14T06:04:46;5.97;;;2.60;;
51921;SDS011;37948;53.260;6.394;2023-03-14T06:07:12;6.55;;;2.63;;
51921;SDS011;37948;53.260;6.394;2023-03-14T06:09:38;11.73;;;2.95;;
51921;SDS011;37948;53.260;6.394;2023-03-14T06:12:04;2.80;;;1.08;;
51921;SDS011;37948;53.260;6.394;2023-03-14T06:14:30;10.13;;;1.30;;
51921;SDS011;37948;53.260;6.394;2023-03-14T06:16:56;5.05;;;0.70;;
51921;SDS011;37948;53.260;6.394;2023-03-14T06:19:24;7.90;;;0.90;;
51921;SDS011;37948;53.260;6.394;2023-03-14T06:21:50;17.20;;;1.17;;
51921;SDS011;37948;53.260;6.394;2023-03-14T06:24:19;11.98;;;1.60;;
51921;SDS011;37948;53.260;6.394;2023-03-14T06:26:45;19.90;;;2.05;;
51921;SDS011;37948;53.260;6.394;2023-03-14T06:29:10;19.40;;;2.45;;
51921;SDS011;37948;53.260;6.394;2023-03-14T06:31:36;18.30;;;3.35;;
51921;SDS011;37948;53.260;6.394;2023-03-14T06:34:01;12.60;;;1.83;;
51921;SDS011;37948;53.260;6.394;2023-03-14T06:36:27;19.70;;;2.83;;
51921;SDS011;37948;53.260;6.394;2023-03-14T06:38:53;19.70;;;4.03;;
51921;SDS011;37948;53.260;6.394;2023-03-14T06:41:18;7.72;;;1.52;;
51921;SDS011;37948;53.260;6.394;2023-03-14T06:43:44;13.38;;;2.25;;
51921;SDS011;37948;53.260;6.394;2023-03-14T06:46:10;13.13;;;1.58;;
51921;SDS011;37948;53.260;6.394;2023-03-14T06:48:35;11.65;;;1.98;;
51921;SDS011;37948;53.260;6.394;2023-03-14T06:51:01;7.03;;;1.10;;
51921;SDS011;37948;53.260;6.394;2023-03-14T06:53:27;14.13;;;1.30;;
51921;SDS011;37948;53.260;6.394;2023-03-14T06:55:52;10.73;;;1.67;;
51921;SDS011;37948;53.260;6.394;2023-03-14T06:58:18;10.98;;;1.00;;
51921;SDS011;37948;53.260;6.394;2023-03-14T07:00:44;9.60;;;1.13;;
51921;SDS011;37948;53.260;6.394;2023-03-14T07:03:10;8.43;;;1.00;;
51921;SDS011;37948;53.260;6.394;2023-03-14T07:05:36;6.07;;;1.02;;
51921;SDS011;37948;53.260;6.394;2023-03-14T07:08:03;6.22;;;1.05;;
51921;SDS011;37948;53.260;6.394;2023-03-14T07:10:29;4.72;;;0.95;;
51921;SDS011;37948;53.260;6.394;2023-03-14T07:12:55;8.10;;;0.50;;
51921;SDS011;37948;53.260;6.394;2023-03-14T07:15:20;6.78;;;0.60;;
51921;SDS011;37948;53.260;6.394;2023-03-14T07:17:46;1.98;;;0.47;;
51921;SDS011;37948;53.260;6.394;2023-03-14T07:20:13;8.25;;;0.70;;
51921;SDS011;37948;53.260;6.394;2023-03-14T07:22:38;5.68;;;0.40;;
51921;SDS011;37948;53.260;6.394;2023-03-14T07:25:05;6.38;;;0.65;;
51921;SDS011;37948;53.260;6.394;2023-03-14T07:27:31;8.63;;;0.70;;
51921;SDS011;37948;53.260;6.394;2023-03-14T07:29:57;6.78;;;0.68;;
51921;SDS011;37948;53.260;6.394;2023-03-14T07:32:22;4.25;;;1.05;;
51921;SDS011;37948;53.260;6.394;2023-03-14T07:34:48;1.85;;;0.40;;
51921;SDS011;37948;53.260;6.394;2023-03-14T07:37:13;2.83;;;0.88;;
51921;SDS011;37948;53.260;6.394;2023-03-14T07:39:39;3.40;;;0.75;;
51921;SDS011;37948;53.260;6.394;2023-03-14T07:42:05;5.28;;;1.05;;
51921;SDS011;37948;53.260;6.394;2023-03-14T07:44:31;7.25;;;0.90;;
51921;SDS011;37948;53.260;6.394;2023-03-14T07:46:57;3.13;;;0.95;;
51921;SDS011;37948;53.260;6.394;2023-03-14T07:49:23;7.30;;;1.42;;
51921;SDS011;37948;53.260;6.394;2023-03-14T07:51:49;9.73;;;1.27;;
51921;SDS011;37948;53.260;6.394;2023-03-14T07:54:15;6.65;;;1.10;;
51921;SDS011;37948;53.260;6.394;2023-03-14T07:56:41;13.07;;;1.02;;
51921;SDS011;37948;53.260;6.394;2023-03-14T07:59:07;11.07;;;1.23;;
51921;SDS011;37948;53.260;6.394;2023-03-14T08:01:32;4.65;;;0.90;;
51921;SDS011;37948;53.260;6.394;2023-03-14T08:03:58;11.07;;;1.20;;
51921;SDS011;37948;53.260;6.394;2023-03-14T08:06:24;10.38;;;0.80;;
51921;SDS011;37948;53.260;6.394;2023-03-14T08:08:50;9.63;;;1.23;;
51921;SDS011;37948;53.260;6.394;2023-03-14T08:11:15;8.75;;;0.95;;
51921;SDS011;37948;53.260;6.394;2023-03-14T08:13:41;7.55;;;0.70;;
51921;SDS011;37948;53.260;6.394;2023-03-14T08:16:07;8.43;;;1.30;;
51921;SDS011;37948;53.260;6.394;2023-03-14T08:18:33;7.13;;;0.85;;
51921;SDS011;37948;53.260;6.394;2023-03-14T08:20:59;8.70;;;1.05;;
51921;SDS011;37948;53.260;6.394;2023-03-14T08:23:24;7.55;;;0.80;;
51921;SDS011;37948;53.260;6.394;2023-03-14T08:25:50;6.63;;;0.85;;
51921;SDS011;37948;53.260;6.394;2023-03-14T08:28:17;6.45;;;0.80;;
51921;SDS011;37948;53.260;6.394;2023-03-14T08:30:43;9.23;;;1.05;;
51921;SDS011;37948;53.260;6.394;2023-03-14T08:33:09;6.95;;;1.23;;
51921;SDS011;37948;53.260;6.394;2023-03-14T08:35:35;10.75;;;1.52;;
51921;SDS011;37948;53.260;6.394;2023-03-14T08:38:02;9.27;;;1.45;;
51921;SDS011;37948;53.260;6.394;2023-03-14T08:40:28;9.40;;;1.75;;
51921;SDS011;37948;53.260;6.394;2023-03-14T08:42:54;9.25;;;1.80;;
51921;SDS011;37948;53.260;6.394;2023-03-14T08:45:20;10.70;;;2.05;;
51921;SDS011;37948;53.260;6.394;2023-03-14T08:47:46;13.02;;;2.13;;
51921;SDS011;37948;53.260;6.394;2023-03-14T08:50:12;13.75;;;2.75;;
51921;SDS011;37948;53.260;6.394;2023-03-14T08:52:38;14.32;;;2.85;;
51921;SDS011;37948;53.260;6.394;2023-03-14T08:55:05;19.10;;;3.83;;
51921;SDS011;37948;53.260;6.394;2023-03-14T08:57:35;16.15;;;3.53;;
51921;SDS011;37948;53.260;6.394;2023-03-14T09:00:01;15.35;;;3.20;;
51921;SDS011;37948;53.260;6.394;2023-03-14T09:02:31;17.88;;;2.47;;
51921;SDS011;37948;53.260;6.394;2023-03-14T09:04:56;14.98;;;2.50;;
51921;SDS011;37948;53.260;6.394;2023-03-14T09:07:22;19.50;;;2.92;;
51921;SDS011;37948;53.260;6.394;2023-03-14T09:09:47;15.40;;;3.70;;
51921;SDS011;37948;53.260;6.394;2023-03-14T09:12:13;21.83;;;3.28;;
51921;SDS011;37948;53.260;6.394;2023-03-14T09:14:39;12.95;;;2.40;;
51921;SDS011;37948;53.260;6.394;2023-03-14T09:17:05;21.10;;;2.83;;
51921;SDS011;37948;53.260;6.394;2023-03-14T09:19:30;23.92;;;3.00;;
51921;SDS011;37948;53.260;6.394;2023-03-14T09:21:56;18.77;;;2.85;;
51921;SDS011;37948;53.260;6.394;2023-03-14T09:24:22;13.43;;;3.30;;
51921;SDS011;37948;53.260;6.394;2023-03-14T09:26:47;20.70;;;3.80;;
51921;SDS011;37948;53.260;6.394;2023-03-14T09:29:13;21.33;;;2.97;;
51921;SDS011;37948;53.260;6.394;2023-03-14T09:31:39;21.55;;;3.72;;
51921;SDS011;37948;53.260;6.394;2023-03-14T09:34:04;15.70;;;2.65;;
51921;SDS011;37948;53.260;6.394;2023-03-14T09:36:30;15.98;;;2.67;;
51921;SDS011;37948;53.260;6.394;2023-03-14T09:38:56;18.38;;;2.97;;
51921;SDS011;37948;53.260;6.394;2023-03-14T09:41:26;15.82;;;2.70;;
51921;SDS011;37948;53.260;6.394;2023-03-14T09:44:00;24.33;;;2.97;;
51921;SDS011;37948;53.260;6.394;2023-03-14T09:46:35;22.75;;;3.20;;
51921;SDS011;37948;53.260;6.394;2023-03-14T09:49:39;16.58;;;3.22;;
51921;SDS011;37948;53.260;6.394;2023-03-14T09:52:05;21.63;;;2.83;;
51921;SDS011;37948;53.260;6.394;2023-03-14T09:55:02;13.23;;;3.50;;
51921;SDS011;37948;53.260;6.394;2023-03-14T09:57:43;19.35;;;4.15;;
51921;SDS011;37948;53.260;6.394;2023-03-14T10:00:15;21.38;;;2.55;;
51921;SDS011;37948;53.260;6.394;2023-03-14T10:02:46;26.13;;;3.17;;
51921;SDS011;37948;53.260;6.394;2023-03-14T10:05:23;17.17;;;3.75;;
51921;SDS011;37948;53.260;6.394;2023-03-14T10:07:50;17.55;;;3.70;;
51921;SDS011;37948;53.260;6.394;2023-03-14T10:10:20;20.63;;;2.85;;
51921;SDS011;37948;53.260;6.394;2023-03-14T10:12:48;15.90;;;2.53;;
51921;SDS011;37948;53.260;6.394;2023-03-14T10:15:30;20.40;;;2.85;;
51921;SDS011;37948;53.260;6.394;2023-03-14T10:18:00;16.30;;;2.58;;
51921;SDS011;37948;53.260;6.394;2023-03-14T10:20:32;14.73;;;2.38;;
51921;SDS011;37948;53.260;6.394;2023-03-14T10:23:04;22.10;;;3.40;;
51921;SDS011;37948;53.260;6.394;2023-03-14T10:25:46;13.70;;;2.10;;
51921;SDS011;37948;53.260;6.394;2023-03-14T10:28:38;15.65;;;2.40;;
51921;SDS011;37948;53.260;6.394;2023-03-14T10:31:07;12.82;;;1.75;;
51921;SDS011;37948;53.260;6.394;2023-03-14T10:33:34;10.43;;;3.05;;
51921;SDS011;37948;53.260;6.394;2023-03-14T10:38:34;8.68;;;2.10;;
51921;SDS011;37948;53.260;6.394;2023-03-14T10:41:01;16.20;;;2.88;;
51921;SDS011;37948;53.260;6.394;2023-03-14T10:43:40;12.77;;;1.45;;
51921;SDS011;37948;53.260;6.394;2023-03-14T10:46:11;11.48;;;1.73;;
51921;SDS011;37948;53.260;6.394;2023-03-14T10:48:40;15.00;;;1.95;;
51921;SDS011;37948;53.260;6.394;2023-03-14T10:51:20;10.38;;;1.70;;
51921;SDS011;37948;53.260;6.394;2023-03-14T10:56:43;5.88;;;1.17;;
51921;SDS011;37948;53.260;6.394;2023-03-14T10:59:23;12.10;;;1.67;;
51921;SDS011;37948;53.260;6.394;2023-03-14T11:07:05;16.08;;;2.05;;
51921;SDS011;37948;53.260;6.394;2023-03-14T11:14:54;6.03;;;1.13;;
51921;SDS011;37948;53.260;6.394;2023-03-14T11:20:55;11.02;;;1.10;;
51921;SDS011;37948;53.260;6.394;2023-03-14T11:26:32;9.02;;;1.10;;
51921;SDS011;37948;53.260;6.394;2023-03-14T11:31:47;5.85;;;1.20;;
51921;SDS011;37948;53.260;6.394;2023-03-14T11:34:17;7.18;;;0.88;;
51921;SDS011;37948;53.260;6.394;2023-03-14T11:37:03;4.80;;;1.15;;
51921;SDS011;37948;53.260;6.394;2023-03-14T11:39:37;9.65;;;1.23;;
51921;SDS011;37948;53.260;6.394;2023-03-14T11:42:07;4.97;;;0.80;;
51921;SDS011;37948;53.260;6.394;2023-03-14T11:44:39;7.35;;;1.33;;
51921;SDS011;37948;53.260;6.394;2023-03-14T11:47:22;8.15;;;1.25;;
51921;SDS011;37948;53.260;6.394;2023-03-14T11:50:00;8.60;;;1.48;;
51921;SDS011;37948;53.260;6.394;2023-03-14T11:55:28;6.70;;;1.08;;
51921;SDS011;37948;53.260;6.394;2023-03-14T11:57:58;7.30;;;1.35;;
51921;SDS011;37948;53.260;6.394;2023-03-14T12:00:28;6.57;;;1.33;;
51921;SDS011;37948;53.260;6.394;2023-03-14T12:03:17;8.65;;;1.85;;
51921;SDS011;37948;53.260;6.394;2023-03-14T12:06:09;5.70;;;1.30;;
51921;SDS011;37948;53.260;6.394;2023-03-14T12:08:49;12.35;;;1.85;;
51921;SDS011;37948;53.260;6.394;2023-03-14T12:14:27;11.52;;;2.35;;
51921;SDS011;37948;53.260;6.394;2023-03-14T12:16:59;8.70;;;1.38;;
51921;SDS011;37948;53.260;6.394;2023-03-14T12:19:42;3.72;;;0.93;;
51921;SDS011;37948;53.260;6.394;2023-03-14T12:22:20;8.32;;;1.50;;
51921;SDS011;37948;53.260;6.394;2023-03-14T12:24:56;15.48;;;2.08;;
51921;SDS011;37948;53.260;6.394;2023-03-14T12:27:40;13.48;;;2.03;;
51921;SDS011;37948;53.260;6.394;2023-03-14T12:30:18;13.93;;;2.58;;
51921;SDS011;37948;53.260;6.394;2023-03-14T12:35:43;8.40;;;1.80;;
51921;SDS011;37948;53.260;6.394;2023-03-14T12:38:13;12.82;;;2.35;;
51921;SDS011;37948;53.260;6.394;2023-03-14T12:40:58;10.80;;;2.00;;
51921;SDS011;37948;53.260;6.394;2023-03-14T12:43:32;11.80;;;1.60;;
51921;SDS011;37948;53.260;6.394;2023-03-14T12:46:15;11.10;;;1.67;;
51921;SDS011;37948;53.260;6.394;2023-03-14T12:51:30;12.23;;;2.17;;
51921;SDS011;37948;53.260;6.394;2023-03-14T12:59:58;8.35;;;1.40;;
51921;SDS011;37948;53.260;6.394;2023-03-14T13:05:01;7.78;;;1.13;;
51921;SDS011;37948;53.260;6.394;2023-03-14T13:07:34;5.63;;;1.27;;
51921;SDS011;37948;53.260;6.394;2023-03-14T13:10:26;8.57;;;1.17;;
51921;SDS011;37948;53.260;6.394;2023-03-14T13:15:42;7.57;;;1.25;;
51921;SDS011;37948;53.260;6.394;2023-03-14T13:18:16;9.68;;;2.15;;
51921;SDS011;37948;53.260;6.394;2023-03-14T13:20:53;9.93;;;1.65;;
51921;SDS011;37948;53.260;6.394;2023-03-14T13:23:25;9.32;;;1.92;;
51921;SDS011;37948;53.260;6.394;2023-03-14T13:25:57;5.25;;;1.00;;
51921;SDS011;37948;53.260;6.394;2023-03-14T13:28:24;6.88;;;1.20;;
51921;SDS011;37948;53.260;6.394;2023-03-14T13:30:53;10.43;;;2.17;;
51921;SDS011;37948;53.260;6.394;2023-03-14T13:33:22;5.38;;;1.13;;
51921;SDS011;37948;53.260;6.394;2023-03-14T13:35:57;8.30;;;1.30;;
51921;SDS011;37948;53.260;6.394;2023-03-14T13:38:25;10.68;;;1.02;;
51921;SDS011;37948;53.260;6.394;2023-03-14T13:40:56;11.70;;;2.50;;
51921;SDS011;37948;53.260;6.394;2023-03-14T13:43:31;12.23;;;1.45;;
51921;SDS011;37948;53.260;6.394;2023-03-14T13:46:12;7.40;;;1.33;;
51921;SDS011;37948;53.260;6.394;2023-03-14T13:48:53;9.68;;;1.40;;
51921;SDS011;37948;53.260;6.394;2023-03-14T13:51:22;8.30;;;2.03;;
51921;SDS011;37948;53.260;6.394;2023-03-14T13:53:53;11.40;;;1.50;;
51921;SDS011;37948;53.260;6.394;2023-03-14T13:56:24;7.22;;;1.40;;
51921;SDS011;37948;53.260;6.394;2023-03-14T13:58:52;8.45;;;1.17;;
51921;SDS011;37948;53.260;6.394;2023-03-14T14:01:25;7.05;;;1.10;;
51921;SDS011;37948;53.260;6.394;2023-03-14T14:03:56;3.75;;;1.15;;
51921;SDS011;37948;53.260;6.394;2023-03-14T14:09:04;7.63;;;1.10;;
51921;SDS011;37948;53.260;6.394;2023-03-14T14:14:17;13.27;;;1.40;;
51921;SDS011;37948;53.260;6.394;2023-03-14T14:16:48;8.50;;;1.38;;
51921;SDS011;37948;53.260;6.394;2023-03-14T14:19:16;19.58;;;2.08;;
51921;SDS011;37948;53.260;6.394;2023-03-14T14:21:43;11.70;;;1.55;;
51921;SDS011;37948;53.260;6.394;2023-03-14T14:24:13;10.13;;;1.83;;
51921;SDS011;37948;53.260;6.394;2023-03-14T14:26:40;8.95;;;1.70;;
51921;SDS011;37948;53.260;6.394;2023-03-14T14:29:26;6.15;;;1.30;;
51921;SDS011;37948;53.260;6.394;2023-03-14T14:32:33;6.28;;;1.08;;
51921;SDS011;37948;53.260;6.394;2023-03-14T14:37:20;9.33;;;1.87;;
51921;SDS011;37948;53.260;6.394;2023-03-14T14:39:52;6.93;;;1.23;;
51921;SDS011;37948;53.260;6.394;2023-03-14T14:42:20;12.00;;;1.63;;
51921;SDS011;37948;53.260;6.394;2023-03-14T14:44:49;8.75;;;1.33;;
51921;SDS011;37948;53.260;6.394;2023-03-14T14:47:20;8.43;;;1.27;;
51921;SDS011;37948;53.260;6.394;2023-03-14T14:49:49;5.95;;;0.85;;
51921;SDS011;37948;53.260;6.394;2023-03-14T14:52:17;8.25;;;1.23;;
51921;SDS011;37948;53.260;6.394;2023-03-14T14:54:46;11.18;;;1.67;;
51921;SDS011;37948;53.260;6.394;2023-03-14T14:57:19;11.80;;;1.85;;
51921;SDS011;37948;53.260;6.394;2023-03-14T14:59:48;5.53;;;0.98;;
51921;SDS011;37948;53.260;6.394;2023-03-14T15:02:29;6.65;;;1.63;;
51921;SDS011;37948;53.260;6.394;2023-03-14T15:05:00;8.35;;;1.30;;
51921;SDS011;37948;53.260;6.394;2023-03-14T15:07:26;9.07;;;1.40;;
51921;SDS011;37948;53.260;6.394;2023-03-14T15:09:51;2.88;;;0.95;;
51921;SDS011;37948;53.260;6.394;2023-03-14T15:12:17;8.45;;;1.67;;
51921;SDS011;37948;53.260;6.394;2023-03-14T15:14:43;5.97;;;1.35;;
51921;SDS011;37948;53.260;6.394;2023-03-14T15:17:10;7.28;;;1.40;;
51921;SDS011;37948;53.260;6.394;2023-03-14T15:19:36;5.25;;;1.20;;
51921;SDS011;37948;53.260;6.394;2023-03-14T15:22:02;10.80;;;1.85;;
51921;SDS011;37948;53.260;6.394;2023-03-14T15:24:28;12.80;;;1.75;;
51921;SDS011;37948;53.260;6.394;2023-03-14T15:26:53;10.30;;;1.70;;
51921;SDS011;37948;53.260;6.394;2023-03-14T15:29:19;8.52;;;1.40;;
51921;SDS011;37948;53.260;6.394;2023-03-14T15:31:44;6.75;;;1.17;;
51921;SDS011;37948;53.260;6.394;2023-03-14T15:34:10;5.78;;;0.75;;
51921;SDS011;37948;53.260;6.394;2023-03-14T15:36:36;12.00;;;1.45;;
51921;SDS011;37948;53.260;6.394;2023-03-14T15:39:03;8.23;;;2.15;;
51921;SDS011;37948;53.260;6.394;2023-03-14T15:41:31;6.35;;;1.75;;
51921;SDS011;37948;53.260;6.394;2023-03-14T15:43:57;7.35;;;1.40;;
51921;SDS011;37948;53.260;6.394;2023-03-14T15:46:23;8.90;;;1.35;;
51921;SDS011;37948;53.260;6.394;2023-03-14T15:48:49;9.77;;;1.25;;
51921;SDS011;37948;53.260;6.394;2023-03-14T15:51:16;3.85;;;1.48;;
51921;SDS011;37948;53.260;6.394;2023-03-14T15:53:43;10.05;;;1.48;;